Time;durP1;ratioP1;P1;durP2;ratioP2;P2;SDS_P1;SDS_P2;PMS_P1;PMS_P2;Temp;Humidity;BMP_temperature;BMP_pressure;BME280_temperature;BME280_humidity;BME280_pressure;Samples;Min_cycle;Max_cycle;Signal;HPM_P1;HPM_P2
2021/11/27 00:01:02;;;;;;;19.92;14.98;;;;;;;;;;5074472;28;20113;-90
2021/11/27 00:03:27;;;;;;;20.27;15.25;;;;;;;;;;5074142;28;20106;-90
2021/11/27 00:05:53;;;;;;;21.20;16.52;;;;;;;;;;5074094;28;20445;-90
2021/11/27 00:08:19;;;;;;;20.63;15.90;;;;;;;;;;5092673;28;20032;-90
2021/11/27 00:10:46;;;;;;;19.90;14.70;;;;;;;;;;5074245;28;20016;-91
2021/11/27 00:13:11;;;;;;;20.73;15.10;;;;;;;;;;5092287;28;20035;-90
2021/11/27 00:15:37;;;;;;;20.85;15.90;;;;;;;;;;5074043;28;20027;-90
2021/11/27 00:18:03;;;;;;;23.08;15.68;;;;;;;;;;5092005;28;20024;-90
2021/11/27 00:20:31;;;;;;;19.73;14.70;;;;;;;;;;5092330;28;20030;-90
2021/11/27 00:22:56;;;;;;;19.13;15.00;;;;;;;;;;5091952;28;20060;-90
2021/11/27 00:25:21;;;;;;;19.83;16.02;;;;;;;;;;5092337;28;20070;-90
2021/11/27 00:27:47;;;;;;;19.60;14.25;;;;;;;;;;5092157;28;20028;-90
2021/11/27 00:30:14;;;;;;;20.25;14.07;;;;;;;;;;5073545;28;20023;-90
2021/11/27 00:32:40;;;;;;;18.80;14.25;;;;;;;;;;5073498;28;20016;-90
2021/11/27 00:35:05;;;;;;;21.50;15.40;;;;;;;;;;5073474;28;20024;-90
2021/11/27 00:37:31;;;;;;;18.55;14.23;;;;;;;;;;5091820;28;20491;-90
2021/11/27 00:39:56;;;;;;;23.08;15.63;;;;;;;;;;5091999;28;20024;-90
2021/11/27 00:42:21;;;;;;;17.65;14.15;;;;;;;;;;5091830;28;20020;-89
2021/11/27 00:44:47;;;;;;;20.38;14.90;;;;;;;;;;5073404;28;20065;-90
2021/11/27 00:47:12;;;;;;;19.90;14.85;;;;;;;;;;5091498;28;20557;-90
2021/11/27 00:49:37;;;;;;;21.90;14.52;;;;;;;;;;5073271;28;20047;-90
2021/11/27 00:52:03;;;;;;;21.75;15.80;;;;;;;;;;5072601;28;20078;-90
2021/11/27 00:54:28;;;;;;;19.10;14.52;;;;;;;;;;5073299;28;20043;-90
2021/11/27 00:56:54;;;;;;;17.65;14.00;;;;;;;;;;5091409;28;20528;-90
2021/11/27 00:59:19;;;;;;;22.80;14.57;;;;;;;;;;5072833;28;20027;-90
2021/11/27 01:01:45;;;;;;;18.05;14.05;;;;;;;;;;5073433;28;20020;-90
2021/11/27 01:04:11;;;;;;;22.42;14.20;;;;;;;;;;5091361;28;20051;-90
2021/11/27 01:06:37;;;;;;;17.65;13.20;;;;;;;;;;5091160;28;20036;-90
2021/11/27 01:09:05;;;;;;;16.58;12.32;;;;;;;;;;5073377;28;20379;-90
2021/11/27 01:11:32;;;;;;;18.05;13.57;;;;;;;;;;5073772;28;20020;-89
2021/11/27 01:14:00;;;;;;;19.92;13.18;;;;;;;;;;5090853;28;20027;-90
2021/11/27 01:16:27;;;;;;;16.90;12.88;;;;;;;;;;5072599;28;20020;-90
2021/11/27 01:18:53;;;;;;;17.85;12.10;;;;;;;;;;5074849;28;20541;-89
2021/11/27 01:21:23;;;;;;;15.68;11.95;;;;;;;;;;5072780;28;20047;-90
2021/11/27 01:23:49;;;;;;;15.82;11.95;;;;;;;;;;5090729;28;20052;-90
2021/11/27 01:26:15;;;;;;;17.65;13.07;;;;;;;;;;5090890;28;20032;-90
2021/11/27 01:28:41;;;;;;;16.85;11.88;;;;;;;;;;5072702;28;20106;-90
2021/11/27 01:31:06;;;;;;;19.48;12.50;;;;;;;;;;5072559;28;20387;-90
2021/11/27 01:33:32;;;;;;;15.27;12.02;;;;;;;;;;5072487;28;20053;-89
2021/11/27 01:35:59;;;;;;;17.83;11.85;;;;;;;;;;5072572;28;20020;-90
2021/11/27 01:38:24;;;;;;;17.45;12.77;;;;;;;;;;5090719;28;20050;-90
2021/11/27 01:40:50;;;;;;;13.73;10.88;;;;;;;;;;5090736;28;20016;-90
2021/11/27 01:43:15;;;;;;;16.17;11.32;;;;;;;;;;5073768;28;20023;-90
2021/11/27 01:45:41;;;;;;;15.48;11.23;;;;;;;;;;5090791;28;20027;-90
2021/11/27 01:48:08;;;;;;;14.63;10.57;;;;;;;;;;5072650;28;20426;-90
2021/11/27 01:50:35;;;;;;;16.35;10.65;;;;;;;;;;5090596;28;20024;-90
2021/11/27 01:53:00;;;;;;;14.43;10.45;;;;;;;;;;5072616;28;20020;-90
2021/11/27 01:55:26;;;;;;;14.60;10.20;;;;;;;;;;5090692;28;20027;-90
2021/11/27 01:57:51;;;;;;;13.55;10.40;;;;;;;;;;5090663;28;20020;-89
2021/11/27 02:00:18;;;;;;;15.68;10.80;;;;;;;;;;5072929;28;20508;-90
2021/11/27 02:02:44;;;;;;;16.17;11.93;;;;;;;;;;5092552;28;20480;-90
2021/11/27 02:05:10;;;;;;;17.58;11.73;;;;;;;;;;5076268;28;20073;-90
2021/11/27 02:07:35;;;;;;;15.73;10.98;;;;;;;;;;5094699;28;20114;-90
2021/11/27 02:10:00;;;;;;;16.45;11.90;;;;;;;;;;5076615;28;20016;-90
2021/11/27 02:12:26;;;;;;;16.27;12.05;;;;;;;;;;5076565;28;20024;-90
2021/11/27 02:14:51;;;;;;;16.08;11.88;;;;;;;;;;5094778;28;20041;-90
2021/11/27 02:17:16;;;;;;;15.32;12.32;;;;;;;;;;5094671;28;20387;-90
2021/11/27 02:19:42;;;;;;;17.23;12.82;;;;;;;;;;5076036;28;20039;-90
2021/11/27 02:22:08;;;;;;;17.55;12.90;;;;;;;;;;5078802;28;20402;-90
2021/11/27 02:24:33;;;;;;;19.05;14.13;;;;;;;;;;5075960;28;20060;-90
2021/11/27 02:26:59;;;;;;;17.38;13.40;;;;;;;;;;5075955;28;20051;-89
2021/11/27 02:29:29;;;;;;;19.90;12.50;;;;;;;;;;5075981;28;20066;-90
2021/11/27 02:31:56;;;;;;;20.40;13.90;;;;;;;;;;5075981;28;20109;-90
2021/11/27 02:34:21;;;;;;;21.70;14.38;;;;;;;;;;5075957;28;20059;-90
2021/11/27 02:36:49;;;;;;;15.23;12.07;;;;;;;;;;5075716;28;20047;-90
2021/11/27 02:39:14;;;;;;;20.15;14.02;;;;;;;;;;5075765;28;20058;-90
2021/11/27 02:41:40;;;;;;;18.85;13.60;;;;;;;;;;5075661;28;20047;-90
2021/11/27 02:44:07;;;;;;;19.58;13.98;;;;;;;;;;5094080;28;20050;-89
2021/11/27 02:46:32;;;;;;;18.05;13.65;;;;;;;;;;5077554;28;20505;-89
2021/11/27 02:48:57;;;;;;;24.40;14.23;;;;;;;;;;5093896;28;20046;-90
2021/11/27 02:51:23;;;;;;;18.60;14.85;;;;;;;;;;5093968;28;20115;-90
2021/11/27 02:53:48;;;;;;;18.73;13.52;;;;;;;;;;5075509;28;20020;-89
2021/11/27 02:56:13;;;;;;;19.10;13.98;;;;;;;;;;5094887;28;20514;-89
2021/11/27 02:58:38;;;;;;;25.75;14.32;;;;;;;;;;5094043;28;20047;-89
2021/11/27 03:01:04;;;;;;;20.90;13.75;;;;;;;;;;5093982;28;20013;-89
2021/11/27 03:03:30;;;;;;;21.92;15.25;;;;;;;;;;5075451;28;20416;-89
2021/11/27 03:05:55;;;;;;;20.33;14.80;;;;;;;;;;5093579;28;20034;-89
2021/11/27 03:08:21;;;;;;;20.10;13.45;;;;;;;;;;5075344;28;20379;-90
2021/11/27 03:10:46;;;;;;;19.73;13.55;;;;;;;;;;5093589;28;20464;-90
2021/11/27 03:13:12;;;;;;;19.90;14.68;;;;;;;;;;5076001;28;20024;-89
2021/11/27 03:15:41;;;;;;;27.77;16.27;;;;;;;;;;5076608;28;20028;-89
2021/11/27 03:18:07;;;;;;;21.38;14.50;;;;;;;;;;5094064;28;20009;-89
2021/11/27 03:20:32;;;;;;;21.98;14.73;;;;;;;;;;5075180;28;20030;-89
2021/11/27 03:22:58;;;;;;;20.98;15.32;;;;;;;;;;5074511;28;20123;-90
2021/11/27 03:25:23;;;;;;;21.08;14.75;;;;;;;;;;5093365;28;20028;-90
2021/11/27 03:27:48;;;;;;;22.23;14.55;;;;;;;;;;5094234;28;20043;-90
2021/11/27 03:30:16;;;;;;;22.10;13.60;;;;;;;;;;5093300;28;20069;-90
2021/11/27 03:32:41;;;;;;;20.63;14.23;;;;;;;;;;5075010;28;20743;-90
2021/11/27 03:35:07;;;;;;;21.63;14.50;;;;;;;;;;5074732;28;20049;-90
2021/11/27 03:37:32;;;;;;;21.55;14.85;;;;;;;;;;5093299;28;20019;-90
2021/11/27 03:39:57;;;;;;;22.08;14.18;;;;;;;;;;5074796;28;20016;-90
2021/11/27 03:42:23;;;;;;;22.15;14.70;;;;;;;;;;5074622;28;20032;-90
2021/11/27 03:44:49;;;;;;;19.00;13.95;;;;;;;;;;5092968;28;20039;-89
2021/11/27 03:47:14;;;;;;;22.00;15.07;;;;;;;;;;5093106;28;20540;-89
2021/11/27 03:49:39;;;;;;;22.75;14.65;;;;;;;;;;5074579;28;20024;-90
2021/11/27 03:52:05;;;;;;;23.15;14.48;;;;;;;;;;5092674;28;20046;-90
2021/11/27 03:54:30;;;;;;;22.48;15.25;;;;;;;;;;5092939;28;20072;-89
2021/11/27 03:56:56;;;;;;;21.80;15.05;;;;;;;;;;5092711;28;20487;-90
2021/11/27 03:59:22;;;;;;;24.92;16.17;;;;;;;;;;5074390;28;20051;-89
2021/11/27 04:01:47;;;;;;;22.58;14.95;;;;;;;;;;5074135;28;20119;-90
2021/11/27 04:04:12;;;;;;;24.02;15.25;;;;;;;;;;5074129;28;20554;-90
2021/11/27 04:06:38;;;;;;;23.23;15.43;;;;;;;;;;5074567;28;20439;-90
2021/11/27 04:09:05;;;;;;;20.20;14.68;;;;;;;;;;5092302;28;20099;-90
2021/11/27 04:11:30;;;;;;;22.10;14.25;;;;;;;;;;5092229;28;20513;-90
2021/11/27 04:13:55;;;;;;;24.98;16.23;;;;;;;;;;5074229;28;20024;-90
2021/11/27 04:16:21;;;;;;;21.10;14.68;;;;;;;;;;5092434;28;20028;-90
2021/11/27 04:18:46;;;;;;;27.67;16.60;;;;;;;;;;5074169;28;20547;-90
2021/11/27 04:21:12;;;;;;;24.75;16.05;;;;;;;;;;5074736;28;20537;-89
2021/11/27 04:23:37;;;;;;;20.95;14.88;;;;;;;;;;5092182;28;20059;-90
2021/11/27 04:26:03;;;;;;;22.15;15.75;;;;;;;;;;5090941;28;20524;-90
2021/11/27 04:28:29;;;;;;;25.27;15.70;;;;;;;;;;5074087;28;20024;-90
2021/11/27 04:30:54;;;;;;;21.50;15.50;;;;;;;;;;5073793;28;20031;-89
2021/11/27 04:33:20;;;;;;;23.20;16.25;;;;;;;;;;5073836;28;20035;-90
2021/11/27 04:35:45;;;;;;;24.42;17.15;;;;;;;;;;5073852;28;20016;-90
2021/11/27 04:38:10;;;;;;;25.77;16.38;;;;;;;;;;5091640;28;20700;-89
2021/11/27 04:40:35;;;;;;;25.25;16.27;;;;;;;;;;5091774;28;20095;-89
2021/11/27 04:43:01;;;;;;;30.60;17.40;;;;;;;;;;5083369;28;20044;-89
2021/11/27 04:45:27;;;;;;;21.33;15.85;;;;;;;;;;5091840;28;20024;-89
2021/11/27 04:47:53;;;;;;;23.70;16.30;;;;;;;;;;5092879;28;20032;-89
2021/11/27 04:50:18;;;;;;;20.90;15.27;;;;;;;;;;5074012;28;20016;-89
2021/11/27 04:52:44;;;;;;;22.38;15.57;;;;;;;;;;5073428;28;20166;-89
2021/11/27 04:55:10;;;;;;;24.45;16.42;;;;;;;;;;5073354;28;20023;-90
2021/11/27 04:57:35;;;;;;;26.45;16.83;;;;;;;;;;5091584;28;20020;-89
2021/11/27 05:00:01;;;;;;;28.40;16.45;;;;;;;;;;5073830;28;20042;-89
2021/11/27 05:02:26;;;;;;;23.55;16.35;;;;;;;;;;5073195;28;20564;-90
2021/11/27 05:04:51;;;;;;;25.50;15.13;;;;;;;;;;5072893;28;20017;-90
2021/11/27 05:07:17;;;;;;;26.77;17.45;;;;;;;;;;5091051;28;20035;-90
2021/11/27 05:09:42;;;;;;;21.98;16.02;;;;;;;;;;5072850;28;20016;-90
2021/11/27 05:12:07;;;;;;;23.15;16.30;;;;;;;;;;5072920;28;20030;-90
2021/11/27 05:14:33;;;;;;;23.70;15.27;;;;;;;;;;5091087;28;20069;-90
2021/11/27 05:16:58;;;;;;;24.77;15.82;;;;;;;;;;5073068;28;20065;-90
2021/11/27 05:19:23;;;;;;;22.60;14.95;;;;;;;;;;5091204;28;20017;-90
2021/11/27 05:21:48;;;;;;;19.48;13.25;;;;;;;;;;5073029;28;20073;-90
2021/11/27 05:24:14;;;;;;;24.40;14.13;;;;;;;;;;5073286;28;20048;-90
2021/11/27 05:26:39;;;;;;;19.63;13.38;;;;;;;;;;5072907;28;20159;-89
2021/11/27 05:29:04;;;;;;;18.85;12.82;;;;;;;;;;5091637;28;20020;-90
2021/11/27 05:31:30;;;;;;;18.02;12.90;;;;;;;;;;5091325;28;20024;-90
2021/11/27 05:36:27;;;;;;;18.92;13.32;;;;;;;;;;5098313;28;20500;-90
2021/11/27 05:38:53;;;;;;;21.05;14.40;;;;;;;;;;5072457;28;20062;-90
2021/11/27 05:41:18;;;;;;;18.75;13.68;;;;;;;;;;5072732;28;20051;-90
2021/11/27 05:43:43;;;;;;;16.95;13.32;;;;;;;;;;5090716;28;20016;-90
2021/11/27 05:46:09;;;;;;;20.38;14.80;;;;;;;;;;5090802;28;20043;-89
2021/11/27 05:48:36;;;;;;;21.38;14.65;;;;;;;;;;5090541;28;20515;-90
2021/11/27 05:51:01;;;;;;;21.58;14.85;;;;;;;;;;5064179;28;20027;-90
2021/11/27 05:53:27;;;;;;;22.42;14.20;;;;;;;;;;5072280;28;20098;-90
2021/11/27 05:55:52;;;;;;;23.45;14.82;;;;;;;;;;5072827;28;20087;-90
2021/11/27 05:58:18;;;;;;;20.27;13.55;;;;;;;;;;5090708;28;20050;-90
2021/11/27 06:00:45;;;;;;;19.08;14.70;;;;;;;;;;5072698;28;20035;-90
2021/11/27 06:03:10;;;;;;;18.85;13.75;;;;;;;;;;5090572;28;20012;-90
2021/11/27 06:05:36;;;;;;;22.63;14.13;;;;;;;;;;5080879;28;20019;-89
2021/11/27 06:08:01;;;;;;;25.15;13.95;;;;;;;;;;5090648;28;20042;-90
2021/11/27 06:10:27;;;;;;;18.95;12.80;;;;;;;;;;5090713;28;20024;-90
2021/11/27 06:12:52;;;;;;;22.85;14.30;;;;;;;;;;5072674;28;20076;-90
2021/11/27 06:15:17;;;;;;;20.98;13.73;;;;;;;;;;5073506;28;20016;-90
2021/11/27 06:17:42;;;;;;;18.00;12.18;;;;;;;;;;5090442;28;20046;-90
2021/11/27 06:20:08;;;;;;;22.42;13.40;;;;;;;;;;5072530;28;20050;-90
2021/11/27 06:22:33;;;;;;;22.77;13.63;;;;;;;;;;5072294;28;20020;-89
2021/11/27 06:24:59;;;;;;;20.58;13.60;;;;;;;;;;5090346;28;20177;-90
2021/11/27 06:27:24;;;;;;;19.20;13.15;;;;;;;;;;5090778;28;20728;-89
2021/11/27 06:29:50;;;;;;;21.27;13.23;;;;;;;;;;5072063;28;20031;-90
2021/11/27 06:32:16;;;;;;;20.58;13.88;;;;;;;;;;5072122;28;20028;-90
2021/11/27 06:34:43;;;;;;;20.13;13.32;;;;;;;;;;5090403;28;20012;-90
2021/11/27 06:37:09;;;;;;;24.75;14.30;;;;;;;;;;5072209;28;20475;-90
2021/11/27 06:39:36;;;;;;;22.13;14.10;;;;;;;;;;5096919;28;20016;-89
2021/11/27 06:42:01;;;;;;;20.58;12.75;;;;;;;;;;5090626;28;20031;-90
2021/11/27 06:44:27;;;;;;;18.42;12.43;;;;;;;;;;5090299;28;20020;-90
2021/11/27 06:46:52;;;;;;;21.75;13.18;;;;;;;;;;5090327;28;20028;-89
2021/11/27 06:49:17;;;;;;;19.90;12.18;;;;;;;;;;5073328;28;20042;-89
2021/11/27 06:51:43;;;;;;;17.20;12.77;;;;;;;;;;5075530;28;20131;-90
2021/11/27 06:54:08;;;;;;;18.67;12.57;;;;;;;;;;5093603;28;20039;-90
2021/11/27 06:56:33;;;;;;;19.75;12.82;;;;;;;;;;5093735;28;20026;-90
2021/11/27 06:58:58;;;;;;;21.70;14.00;;;;;;;;;;5075196;28;20106;-89
2021/11/27 07:01:24;;;;;;;17.65;12.88;;;;;;;;;;5075914;28;20028;-89
2021/11/27 07:03:49;;;;;;;19.25;13.55;;;;;;;;;;5093841;28;20562;-89
2021/11/27 07:06:14;;;;;;;21.95;14.35;;;;;;;;;;5075659;28;20517;-90
2021/11/27 07:08:39;;;;;;;20.10;13.55;;;;;;;;;;5093653;28;20034;-90
2021/11/27 07:11:05;;;;;;;21.60;13.70;;;;;;;;;;5075302;28;20106;-90
2021/11/27 07:13:30;;;;;;;23.05;13.95;;;;;;;;;;5093199;28;20495;-90
2021/11/27 07:15:55;;;;;;;21.05;13.43;;;;;;;;;;5075511;28;20028;-90
2021/11/27 07:18:21;;;;;;;20.20;14.02;;;;;;;;;;5093518;28;20016;-89
2021/11/27 07:20:46;;;;;;;19.23;13.48;;;;;;;;;;5076315;28;20031;-89
2021/11/27 07:23:11;;;;;;;22.63;15.10;;;;;;;;;;5093129;28;20048;-89
2021/11/27 07:25:37;;;;;;;22.55;14.63;;;;;;;;;;5074794;28;20031;-89
2021/11/27 07:28:03;;;;;;;22.95;15.95;;;;;;;;;;5075047;28;20024;-90
2021/11/27 07:30:28;;;;;;;20.77;14.77;;;;;;;;;;5093247;28;20466;-89
2021/11/27 07:32:53;;;;;;;22.33;13.32;;;;;;;;;;5093162;28;20383;-89
2021/11/27 07:35:18;;;;;;;21.58;14.95;;;;;;;;;;5093151;28;20022;-89
2021/11/27 07:37:44;;;;;;;24.08;14.68;;;;;;;;;;5093398;28;20024;-89
2021/11/27 07:40:10;;;;;;;20.70;13.98;;;;;;;;;;5076039;28;20429;-89
2021/11/27 07:42:35;;;;;;;23.80;14.18;;;;;;;;;;5093285;28;20070;-89
2021/11/27 07:45:00;;;;;;;21.38;13.52;;;;;;;;;;5074299;28;20027;-89
2021/11/27 07:47:26;;;;;;;20.95;14.90;;;;;;;;;;5074692;28;20043;-89
2021/11/27 07:49:51;;;;;;;21.98;14.40;;;;;;;;;;5074774;28;20024;-90
2021/11/27 07:52:21;;;;;;;22.95;15.05;;;;;;;;;;5074305;28;20024;-89
2021/11/27 07:54:46;;;;;;;20.80;14.93;;;;;;;;;;5074504;28;20016;-89
2021/11/27 07:57:11;;;;;;;21.17;14.73;;;;;;;;;;5092716;28;20074;-89
2021/11/27 07:59:37;;;;;;;19.23;13.63;;;;;;;;;;5092086;28;20408;-89
2021/11/27 08:02:02;;;;;;;22.48;15.25;;;;;;;;;;5074518;28;20016;-89
2021/11/27 08:04:27;;;;;;;23.55;15.23;;;;;;;;;;5093626;28;20689;-89
2021/11/27 08:06:53;;;;;;;20.80;15.70;;;;;;;;;;5074298;28;20083;-89
2021/11/27 08:09:18;;;;;;;22.73;15.48;;;;;;;;;;5074343;28;20020;-89
2021/11/27 08:11:43;;;;;;;21.60;15.85;;;;;;;;;;5092403;28;20475;-89
2021/11/27 08:14:08;;;;;;;24.85;16.35;;;;;;;;;;5092241;28;20028;-90
2021/11/27 08:16:33;;;;;;;26.63;17.15;;;;;;;;;;5073900;28;20070;-89
2021/11/27 08:18:59;;;;;;;23.13;16.88;;;;;;;;;;5091877;28;20072;-89
2021/11/27 08:21:25;;;;;;;21.25;16.48;;;;;;;;;;5073827;28;20012;-89
2021/11/27 08:23:50;;;;;;;21.77;14.60;;;;;;;;;;5073621;28;20138;-88
2021/11/27 08:26:16;;;;;;;19.80;14.80;;;;;;;;;;5092035;28;20460;-89
2021/11/27 08:28:41;;;;;;;21.52;15.20;;;;;;;;;;5092040;28;20024;-89
2021/11/27 08:31:06;;;;;;;25.27;15.52;;;;;;;;;;5074236;28;20070;-89
2021/11/27 08:33:31;;;;;;;21.40;13.27;;;;;;;;;;5073665;28;20024;-89
2021/11/27 08:35:57;;;;;;;24.65;15.70;;;;;;;;;;5092173;28;20032;-89
2021/11/27 08:38:22;;;;;;;21.67;14.98;;;;;;;;;;5073767;28;20420;-89
2021/11/27 08:40:48;;;;;;;23.40;15.63;;;;;;;;;;5092046;28;20662;-89
2021/11/27 08:43:14;;;;;;;23.23;16.25;;;;;;;;;;5092112;28;20060;-90
2021/11/27 08:45:40;;;;;;;21.15;16.30;;;;;;;;;;5073610;28;20101;-90
2021/11/27 08:48:06;;;;;;;21.15;15.60;;;;;;;;;;5091835;28;20020;-89
2021/11/27 08:50:31;;;;;;;23.77;16.95;;;;;;;;;;5091662;28;20020;-90
2021/11/27 08:52:57;;;;;;;23.02;16.35;;;;;;;;;;5091781;28;20017;-89
2021/11/27 08:55:22;;;;;;;25.40;16.90;;;;;;;;;;5073628;28;20054;-90
2021/11/27 08:57:47;;;;;;;20.90;15.88;;;;;;;;;;5091876;28;20056;-89
2021/11/27 09:00:13;;;;;;;27.73;16.33;;;;;;;;;;5072921;28;20035;-90
2021/11/27 09:02:39;;;;;;;27.00;16.98;;;;;;;;;;5091442;28;20857;-90
2021/11/27 09:05:04;;;;;;;27.25;17.20;;;;;;;;;;5091096;28;20395;-89
2021/11/27 09:07:30;;;;;;;23.48;16.38;;;;;;;;;;5072962;28;20040;-89
2021/11/27 09:09:55;;;;;;;32.10;20.08;;;;;;;;;;5090934;28;20024;-89
2021/11/27 09:12:21;;;;;;;21.48;14.65;;;;;;;;;;5072363;28;20012;-89
2021/11/27 09:14:47;;;;;;;23.23;16.83;;;;;;;;;;5091379;28;20035;-89
2021/11/27 09:17:12;;;;;;;23.85;17.35;;;;;;;;;;5091024;28;20039;-89
2021/11/27 09:19:38;;;;;;;27.05;18.77;;;;;;;;;;5091026;28;20379;-89
2021/11/27 09:22:04;;;;;;;29.70;18.67;;;;;;;;;;5090970;28;20104;-89
2021/11/27 09:24:30;;;;;;;24.30;18.58;;;;;;;;;;5090916;28;20032;-89
2021/11/27 09:26:55;;;;;;;29.02;17.92;;;;;;;;;;5091108;28;20510;-89
2021/11/27 09:29:20;;;;;;;35.20;21.13;;;;;;;;;;5090875;28;20375;-89
2021/11/27 09:31:46;;;;;;;29.05;18.85;;;;;;;;;;5072417;28;20031;-89
2021/11/27 09:34:12;;;;;;;22.90;16.88;;;;;;;;;;5090830;28;20555;-89
2021/11/27 09:36:38;;;;;;;21.33;14.68;;;;;;;;;;5072446;28;20499;-89
2021/11/27 09:39:03;;;;;;;21.23;14.60;;;;;;;;;;5072707;28;20113;-90
2021/11/27 09:41:29;;;;;;;22.05;15.57;;;;;;;;;;5072563;28;20020;-89
2021/11/27 09:43:59;;;;;;;18.23;13.70;;;;;;;;;;5090911;28;20486;-89
2021/11/27 09:46:25;;;;;;;21.30;15.13;;;;;;;;;;5090845;28;20032;-89
2021/11/27 09:48:52;;;;;;;21.65;16.05;;;;;;;;;;5090719;28;20024;-89
2021/11/27 09:51:19;;;;;;;22.73;15.43;;;;;;;;;;5090931;28;20483;-89
2021/11/27 09:53:45;;;;;;;19.92;14.57;;;;;;;;;;5072301;28;20016;-89
2021/11/27 09:56:11;;;;;;;25.52;14.93;;;;;;;;;;5090523;28;20012;-89
2021/11/27 09:58:36;;;;;;;20.27;15.32;;;;;;;;;;5072550;28;20106;-89
2021/11/27 10:01:02;;;;;;;21.00;15.30;;;;;;;;;;5072254;28;20020;-89
2021/11/27 10:03:29;;;;;;;23.95;13.95;;;;;;;;;;5090557;28;20020;-89
2021/11/27 10:05:54;;;;;;;23.13;14.27;;;;;;;;;;5072016;28;20070;-89
2021/11/27 10:08:19;;;;;;;21.73;15.32;;;;;;;;;;5090578;28;20020;-89
2021/11/27 10:10:45;;;;;;;20.45;14.63;;;;;;;;;;5072333;28;20020;-89
2021/11/27 10:13:10;;;;;;;21.52;14.68;;;;;;;;;;5090128;28;20058;-89
2021/11/27 10:15:35;;;;;;;22.75;15.35;;;;;;;;;;5071805;28;20023;-89
2021/11/27 10:18:12;;;;;;;23.83;15.38;;;;;;;;;;5090410;28;20030;-89
2021/11/27 10:20:37;;;;;;;21.05;15.25;;;;;;;;;;5090733;28;20020;-89
2021/11/27 10:23:03;;;;;;;20.83;14.70;;;;;;;;;;5091313;28;20059;-89
2021/11/27 10:25:34;;;;;;;18.27;13.65;;;;;;;;;;5075909;28;20016;-89
2021/11/27 10:28:10;;;;;;;18.77;14.65;;;;;;;;;;5075333;28;20032;-89
2021/11/27 10:30:59;;;;;;;18.20;13.63;;;;;;;;;;5075887;28;20032;-89
2021/11/27 10:33:25;;;;;;;19.75;13.10;;;;;;;;;;5076445;28;20043;-89
2021/11/27 10:36:05;;;;;;;19.15;12.88;;;;;;;;;;5075929;28;20028;-89
2021/11/27 10:38:34;;;;;;;19.38;13.23;;;;;;;;;;5093681;28;20490;-89
2021/11/27 10:41:00;;;;;;;15.98;12.90;;;;;;;;;;5075932;28;20023;-89
2021/11/27 10:43:25;;;;;;;17.98;14.50;;;;;;;;;;5075959;28;20018;-89
2021/11/27 10:45:50;;;;;;;21.10;14.90;;;;;;;;;;5093858;28;20031;-89
2021/11/27 10:48:17;;;;;;;21.42;14.88;;;;;;;;;;5075430;28;20024;-89
2021/11/27 10:50:52;;;;;;;22.83;14.85;;;;;;;;;;5093769;28;20736;-89
2021/11/27 10:53:19;;;;;;;23.20;15.88;;;;;;;;;;5094051;28;20047;-89
2021/11/27 10:55:44;;;;;;;21.48;14.65;;;;;;;;;;5093443;28;20052;-86
2021/11/27 10:58:10;;;;;;;19.40;14.73;;;;;;;;;;5094108;28;20050;-91
2021/11/27 11:00:39;;;;;;;17.10;12.48;;;;;;;;;;5093751;28;20023;-91
2021/11/27 11:03:09;;;;;;;16.15;10.85;;;;;;;;;;5093885;28;20099;-91
2021/11/27 11:05:36;;;;;;;13.68;9.95;;;;;;;;;;5077163;28;20119;-89
2021/11/27 11:08:02;;;;;;;13.65;9.88;;;;;;;;;;5094561;28;20032;-89
2021/11/27 11:10:32;;;;;;;11.40;9.50;;;;;;;;;;5075225;28;20114;-90
2021/11/27 11:12:57;;;;;;;12.70;9.88;;;;;;;;;;5075611;28;20028;-89
2021/11/27 11:15:24;;;;;;;12.93;9.30;;;;;;;;;;5075225;28;20031;-90
2021/11/27 11:18:09;;;;;;;17.13;10.27;;;;;;;;;;5093464;28;20098;-89
2021/11/27 11:20:35;;;;;;;13.00;8.80;;;;;;;;;;5075085;28;20024;-89
2021/11/27 11:23:19;;;;;;;13.73;9.48;;;;;;;;;;5074859;28;20050;-89
2021/11/27 11:26:02;;;;;;;13.88;10.02;;;;;;;;;;5093280;28;20050;-91
2021/11/27 11:28:29;;;;;;;14.80;10.30;;;;;;;;;;5075104;28;20020;-91
2021/11/27 11:30:56;;;;;;;16.50;10.20;;;;;;;;;;5074956;28;20738;-91
2021/11/27 11:33:22;;;;;;;14.55;10.00;;;;;;;;;;5074774;28;20031;-91
2021/11/27 11:35:47;;;;;;;16.10;10.05;;;;;;;;;;5092542;28;20020;-91
2021/11/27 11:38:14;;;;;;;12.60;10.00;;;;;;;;;;5093088;28;20031;-91
2021/11/27 11:40:40;;;;;;;13.77;10.65;;;;;;;;;;5075160;28;20077;-91
2021/11/27 11:43:05;;;;;;;10.35;9.07;;;;;;;;;;5077180;28;20020;-91
2021/11/27 11:45:31;;;;;;;11.25;9.05;;;;;;;;;;5093271;28;20781;-92
2021/11/27 11:47:57;;;;;;;18.98;10.93;;;;;;;;;;5074503;28;20032;-92
2021/11/27 11:50:24;;;;;;;12.93;7.55;;;;;;;;;;5075041;28;20043;-92
2021/11/27 11:52:54;;;;;;;10.98;8.07;;;;;;;;;;5092979;28;20016;-91
2021/11/27 11:55:20;;;;;;;9.32;7.68;;;;;;;;;;5075223;28;20061;-91
2021/11/27 11:57:49;;;;;;;11.15;8.80;;;;;;;;;;5074598;28;20024;-91
2021/11/27 12:00:34;;;;;;;12.45;10.00;;;;;;;;;;5076398;28;20051;-91
2021/11/27 12:03:10;;;;;;;14.32;10.25;;;;;;;;;;5074789;28;20022;-91
2021/11/27 12:05:55;;;;;;;13.63;8.95;;;;;;;;;;5074433;28;20032;-91
2021/11/27 12:08:39;;;;;;;16.38;11.32;;;;;;;;;;5023980;28;20071;-91
2021/11/27 12:11:05;;;;;;;15.80;11.82;;;;;;;;;;5092867;28;20104;-92
2021/11/27 12:13:33;;;;;;;14.95;11.70;;;;;;;;;;5074568;28;20037;-93
2021/11/27 12:16:11;;;;;;;19.95;13.13;;;;;;;;;;5078331;28;20043;-90
2021/11/27 12:18:57;;;;;;;16.17;12.32;;;;;;;;;;5074621;28;20055;-92
2021/11/27 12:21:22;;;;;;;19.02;12.43;;;;;;;;;;5064211;28;20036;-92
2021/11/27 12:23:50;;;;;;;16.25;11.85;;;;;;;;;;5073792;28;20116;-92
2021/11/27 12:26:19;;;;;;;15.35;11.05;;;;;;;;;;5074894;28;20031;-92
2021/11/27 12:28:47;;;;;;;15.20;11.35;;;;;;;;;;5092244;28;20055;-92
2021/11/27 12:31:13;;;;;;;13.15;10.63;;;;;;;;;;5092065;28;20477;-91
2021/11/27 12:33:46;;;;;;;12.15;10.20;;;;;;;;;;5092434;28;20095;-92
2021/11/27 12:36:26;;;;;;;14.68;9.77;;;;;;;;;;5092234;28;20039;-92
2021/11/27 12:39:01;;;;;;;13.27;10.63;;;;;;;;;;5093046;28;20020;-92
2021/11/27 13:23:00;;;;;;;12.45;9.07;;;;;;;;;;5336527;22;20060;-88
2021/11/27 13:25:25;;;;;;;15.73;9.90;;;;;;;;;;5090060;28;20027;-87
2021/11/27 21:49:45;;;;;;;18.75;11.35;;;;;;;;;;5030515;28;20473;-93
2021/11/27 21:52:10;;;;;;;16.70;12.35;;;;;;;;;;5016017;28;20035;-93
2021/11/27 21:54:35;;;;;;;19.00;12.65;;;;;;;;;;5014765;28;20098;-93
2021/11/27 21:57:01;;;;;;;16.80;11.85;;;;;;;;;;5014559;28;20111;-93
2021/11/27 21:59:27;;;;;;;26.08;13.43;;;;;;;;;;5016711;28;20030;-94
2021/11/27 22:01:53;;;;;;;18.95;11.90;;;;;;;;;;5016582;28;20184;-94
2021/11/27 22:04:18;;;;;;;24.13;17.88;;;;;;;;;;5020814;28;20021;-94
2021/11/27 22:06:51;;;;;;;16.85;11.98;;;;;;;;;;5026363;28;20029;-93
2021/11/27 22:09:16;;;;;;;15.68;11.82;;;;;;;;;;5015955;28;20031;-93
2021/11/27 22:11:41;;;;;;;15.57;11.93;;;;;;;;;;5020648;28;20104;-94
2021/11/27 22:14:07;;;;;;;19.80;11.55;;;;;;;;;;5041782;28;20025;-94
2021/11/27 22:16:33;;;;;;;19.48;13.32;;;;;;;;;;5020719;28;20021;-93
2021/11/27 22:18:58;;;;;;;13.77;11.30;;;;;;;;;;5020172;28;20057;-94
2021/11/27 22:24:17;;;;;;;27.98;14.27;;;;;;;;;;1261070;22;20244;-94
2021/11/27 22:26:44;;;;;;;21.48;14.57;;;;;;;;;;4999319;28;20046;-94
2021/11/27 22:29:27;;;;;;;24.80;16.55;;;;;;;;;;4988279;28;20065;-94
2021/11/27 22:31:52;;;;;;;33.92;20.33;;;;;;;;;;4987905;28;20042;-93
2021/11/27 22:34:18;;;;;;;24.20;15.82;;;;;;;;;;4979265;28;20674;-93
2021/11/27 22:36:43;;;;;;;20.48;14.95;;;;;;;;;;4980396;28;20032;-93
2021/11/27 22:39:09;;;;;;;23.60;16.42;;;;;;;;;;4984216;28;20482;-93
2021/11/27 22:41:34;;;;;;;25.80;16.48;;;;;;;;;;4980161;28;20032;-93
2021/11/27 22:44:00;;;;;;;26.17;17.23;;;;;;;;;;5000043;28;20018;-93
2021/11/27 22:46:27;;;;;;;21.02;14.85;;;;;;;;;;4999059;28;20026;-93
2021/11/27 22:48:52;;;;;;;17.63;14.27;;;;;;;;;;4983626;28;20026;-93
2021/11/27 22:51:18;;;;;;;21.67;15.07;;;;;;;;;;4982830;28;20478;-94
2021/11/27 22:53:43;;;;;;;22.58;14.95;;;;;;;;;;4982993;28;20026;-93
2021/11/27 22:56:09;;;;;;;30.00;16.02;;;;;;;;;;4982638;28;20031;-94
2021/11/27 22:58:34;;;;;;;18.77;14.75;;;;;;;;;;4989220;28;20038;-93
2021/11/27 23:01:06;;;;;;;20.85;15.10;;;;;;;;;;4980607;28;20073;-94
2021/11/27 23:03:32;;;;;;;23.10;16.73;;;;;;;;;;4981519;28;20110;-93
2021/11/27 23:05:57;;;;;;;20.13;14.75;;;;;;;;;;4983735;28;20026;-93
2021/11/27 23:08:23;;;;;;;17.58;13.65;;;;;;;;;;4981915;28;20030;-93
2021/11/27 23:10:49;;;;;;;22.65;14.70;;;;;;;;;;4980948;28;20022;-94
2021/11/27 23:13:14;;;;;;;19.20;13.82;;;;;;;;;;4999610;28;20034;-93
2021/11/27 23:15:39;;;;;;;20.20;14.63;;;;;;;;;;4978406;28;20117;-93
2021/11/27 23:18:09;;;;;;;20.50;14.68;;;;;;;;;;4981057;28;20030;-93
2021/11/27 23:20:36;;;;;;;20.98;14.95;;;;;;;;;;4982573;28;20453;-94
2021/11/27 23:23:01;;;;;;;16.95;13.00;;;;;;;;;;4983159;28;20030;-93